createdAt,value
2023-02-25T00:01:40.891Z,14.40
2023-02-25T00:04:08.622Z,8.02
2023-02-25T00:06:35.558Z,13.73
2023-02-25T00:09:02.462Z,10.57
2023-02-25T00:11:30.236Z,10.07
2023-02-25T00:13:57.132Z,11.38
2023-02-25T00:16:25.543Z,18.33
2023-02-25T00:18:56.575Z,21.67
2023-02-25T00:21:24.988Z,21.13
2023-02-25T00:23:53.611Z,10.15
2023-02-25T00:26:21.613Z,6.88
2023-02-25T00:28:49.318Z,10.20
2023-02-25T00:31:20.297Z,17.20
2023-02-25T00:33:48.306Z,9.48
2023-02-25T00:36:21.473Z,9.50
2023-02-25T00:38:58.163Z,11.50
2023-02-25T00:41:28.272Z,7.68
2023-02-25T00:44:01.244Z,13.68
2023-02-25T00:46:30.104Z,9.63
2023-02-25T00:48:58.603Z,15.52
2023-02-25T00:51:31.588Z,13.70
2023-02-25T00:53:59.173Z,11.40
2023-02-25T00:56:27.449Z,13.05
2023-02-25T00:58:54.732Z,8.13
2023-02-25T01:01:29.424Z,12.48
2023-02-25T01:03:57.632Z,13.10
2023-02-25T01:06:27.562Z,11.38
2023-02-25T01:08:55.113Z,7.68
2023-02-25T01:11:29.422Z,7.38
2023-02-25T01:13:59.987Z,9.90
2023-02-25T01:16:29.619Z,10.13
2023-02-25T01:19:01.288Z,10.35
2023-02-25T01:21:31.988Z,9.35
2023-02-25T01:24:16.408Z,9.45
2023-02-25T01:26:46.004Z,11.80
2023-02-25T01:29:20.214Z,17.60
2023-02-25T01:31:48.029Z,8.43
2023-02-25T01:34:17.642Z,8.18
2023-02-25T01:36:46.191Z,8.63
2023-02-25T01:39:15.074Z,17.50
2023-02-25T01:41:42.352Z,13.13
2023-02-25T01:44:15.884Z,6.63
2023-02-25T01:46:47.341Z,8.13
2023-02-25T01:49:32.785Z,9.57
2023-02-25T01:52:13.808Z,17.63
2023-02-25T01:54:42.771Z,10.15
2023-02-25T01:57:13.668Z,6.85
2023-02-25T01:59:43.202Z,8.82
2023-02-25T02:02:16.627Z,12.18
2023-02-25T02:04:45.407Z,17.95
2023-02-25T02:07:14.336Z,12.30
2023-02-25T02:09:55.976Z,8.82
2023-02-25T02:12:30.774Z,13.70
2023-02-25T02:14:59.709Z,7.10
2023-02-25T02:17:55.349Z,10.20
2023-02-25T02:20:35.717Z,10.75
2023-02-25T02:23:46.937Z,9.27
2023-02-25T02:27:00.506Z,11.30
2023-02-25T02:30:11.889Z,8.88
2023-02-25T02:33:17.623Z,5.75
2023-02-25T02:36:08.423Z,12.18
2023-02-25T02:38:49.244Z,10.90
2023-02-25T02:41:33.086Z,9.10
2023-02-25T02:44:30.278Z,10.18
2023-02-25T02:47:07.930Z,11.57
2023-02-25T02:49:51.809Z,7.93
2023-02-25T02:52:27.513Z,16.48
2023-02-25T02:55:22.449Z,15.68
2023-02-25T02:57:56.845Z,9.73
2023-02-25T03:00:28.778Z,5.88
2023-02-25T03:03:04.092Z,10.10
2023-02-25T03:05:33.494Z,6.35
2023-02-25T03:08:12.219Z,7.18
2023-02-25T03:10:39.231Z,7.70
2023-02-25T03:13:06.497Z,9.05
2023-02-25T03:15:34.693Z,7.97
2023-02-25T03:18:12.769Z,9.00
2023-02-25T03:20:47.622Z,7.97
2023-02-25T03:23:21.201Z,9.20
2023-02-25T03:26:12.690Z,10.35
2023-02-25T03:28:41.747Z,8.40
2023-02-25T03:31:24.288Z,10.48
2023-02-25T03:34:13.993Z,9.90
2023-02-25T03:36:47.652Z,13.30
2023-02-25T03:39:23.057Z,7.97
2023-02-25T03:41:54.944Z,6.45
2023-02-25T03:44:37.711Z,7.05
2023-02-25T03:47:07.454Z,7.25
2023-02-25T03:49:56.225Z,6.38
2023-02-25T03:52:26.451Z,6.82
2023-02-25T03:54:58.957Z,6.43
2023-02-25T03:57:38.496Z,6.40
2023-02-25T04:00:28.777Z,7.25
2023-02-25T04:02:56.318Z,6.13
2023-02-25T04:05:27.691Z,6.72
2023-02-25T04:07:56.712Z,9.50
2023-02-25T04:10:26.166Z,8.70
2023-02-25T04:12:53.864Z,6.38
2023-02-25T04:15:21.694Z,6.20
2023-02-25T04:17:48.679Z,7.07
2023-02-25T04:20:17.270Z,6.88
2023-02-25T04:22:44.638Z,6.38
2023-02-25T04:25:12.004Z,6.45
2023-02-25T04:27:39.013Z,5.60
2023-02-25T04:30:06.879Z,6.97
2023-02-25T04:32:33.849Z,6.63
2023-02-25T04:35:03.173Z,7.60
2023-02-25T04:37:31.094Z,6.45
2023-02-25T04:39:58.512Z,6.07
2023-02-25T04:42:25.467Z,6.32
2023-02-25T04:44:52.438Z,6.80
2023-02-25T04:47:19.366Z,7.88
2023-02-25T04:49:46.446Z,6.15
2023-02-25T04:52:15.040Z,6.90
2023-02-25T04:54:42.240Z,6.63
2023-02-25T04:57:11.231Z,6.13
2023-02-25T04:59:38.812Z,8.35
2023-02-25T05:02:07.431Z,7.15
2023-02-25T05:04:38.827Z,7.20
2023-02-25T05:07:07.745Z,7.53
2023-02-25T05:09:35.197Z,8.05
2023-02-25T05:12:02.913Z,8.07
2023-02-25T05:14:32.497Z,6.97
2023-02-25T05:16:59.808Z,6.75
2023-02-25T05:19:26.710Z,8.15
2023-02-25T05:21:54.307Z,7.93
2023-02-25T05:24:23.463Z,7.40
2023-02-25T05:26:51.683Z,7.78
2023-02-25T05:29:18.823Z,7.97
2023-02-25T05:31:45.945Z,10.00
2023-02-25T05:34:13.004Z,8.85
2023-02-25T05:36:40.820Z,8.00
2023-02-25T05:39:07.921Z,8.57
2023-02-25T05:41:34.898Z,8.38
2023-02-25T05:44:01.788Z,9.02
2023-02-25T05:46:28.817Z,6.97
2023-02-25T05:48:55.786Z,9.32
2023-02-25T05:51:23.624Z,7.55
2023-02-25T05:53:52.297Z,7.90
2023-02-25T05:56:25.753Z,9.90
2023-02-25T05:58:54.706Z,7.65
2023-02-25T06:01:31.535Z,8.65
2023-02-25T06:06:29.088Z,9.57
2023-02-25T06:08:56.255Z,6.93
2023-02-25T06:11:27.670Z,7.53
2023-02-25T06:13:56.357Z,8.10
2023-02-25T06:16:25.994Z,7.90
2023-02-25T06:18:53.187Z,8.45
2023-02-25T06:21:20.183Z,7.80
2023-02-25T06:23:50.092Z,9.18
2023-02-25T06:26:18.025Z,8.68
2023-02-25T06:28:45.178Z,8.98
2023-02-25T06:31:16.094Z,9.18
2023-02-25T06:33:43.221Z,13.40
2023-02-25T06:36:11.437Z,9.20
2023-02-25T06:38:38.486Z,8.73
2023-02-25T06:41:08.193Z,8.85
2023-02-25T06:43:36.082Z,7.75
2023-02-25T06:46:07.503Z,10.43
2023-02-25T06:48:34.614Z,8.20
2023-02-25T06:51:02.906Z,9.80
2023-02-25T06:53:29.992Z,9.43
2023-02-25T06:55:59.091Z,8.38
2023-02-25T06:58:26.025Z,8.70
2023-02-25T07:00:53.033Z,8.80
2023-02-25T07:03:20.015Z,10.88
2023-02-25T07:05:47.005Z,9.18
2023-02-25T07:08:13.876Z,9.23
2023-02-25T07:10:41.707Z,8.35
2023-02-25T07:13:10.821Z,8.68
2023-02-25T07:15:37.781Z,9.35
2023-02-25T07:18:05.113Z,9.23
2023-02-25T07:20:32.157Z,9.95
2023-02-25T07:22:59.674Z,9.18
2023-02-25T07:25:26.609Z,8.57
2023-02-25T07:27:54.348Z,9.38
2023-02-25T07:30:21.262Z,9.45
2023-02-25T07:32:48.598Z,8.82
2023-02-25T07:35:15.639Z,9.15
2023-02-25T07:37:42.565Z,10.00
2023-02-25T07:40:13.466Z,13.18
2023-02-25T07:42:41.314Z,9.35
2023-02-25T07:45:10.118Z,9.05
2023-02-25T07:47:38.200Z,8.68
2023-02-25T07:50:06.912Z,7.78
2023-02-25T07:52:33.914Z,7.45
2023-02-25T07:55:00.774Z,9.20
2023-02-25T07:57:29.124Z,8.60
2023-02-25T07:59:56.077Z,8.32
2023-02-25T08:02:23.184Z,8.43
2023-02-25T08:04:50.305Z,8.05
2023-02-25T08:07:17.580Z,9.23
2023-02-25T08:09:44.548Z,9.68
2023-02-25T08:12:11.460Z,11.20
2023-02-25T08:14:38.452Z,9.38
2023-02-25T08:17:05.783Z,6.95
2023-02-25T08:19:32.751Z,7.30
2023-02-25T08:22:00.472Z,8.77
2023-02-25T08:24:27.457Z,7.55
2023-02-25T08:26:54.779Z,7.97
2023-02-25T08:29:23.402Z,8.05
2023-02-25T08:31:52.405Z,8.02
2023-02-25T08:34:19.481Z,11.48
2023-02-25T08:36:46.415Z,9.20
2023-02-25T08:39:13.603Z,8.70
2023-02-25T08:41:40.774Z,9.00
2023-02-25T08:44:08.099Z,8.70
2023-02-25T08:46:37.123Z,8.43
2023-02-25T08:49:06.953Z,9.43
2023-02-25T08:51:34.698Z,18.25
2023-02-25T08:54:08.066Z,10.52
2023-02-25T08:56:36.763Z,13.77
2023-02-25T08:59:05.062Z,12.32
2023-02-25T09:01:44.737Z,11.90
2023-02-25T09:04:18.131Z,9.18
2023-02-25T09:06:48.580Z,7.88
2023-02-25T09:09:18.538Z,6.93
2023-02-25T09:11:47.389Z,11.85
2023-02-25T09:14:14.555Z,9.98
2023-02-25T09:16:41.566Z,11.40
2023-02-25T09:19:10.633Z,9.35
2023-02-25T09:21:40.380Z,8.98
2023-02-25T09:24:08.928Z,10.43
2023-02-25T09:26:36.434Z,9.07
2023-02-25T09:29:05.197Z,8.57
2023-02-25T09:31:33.670Z,8.13
2023-02-25T09:34:06.505Z,11.10
2023-02-25T09:36:34.251Z,8.77
2023-02-25T09:39:01.522Z,8.05
2023-02-25T09:41:55.713Z,8.77
2023-02-25T09:44:40.814Z,9.15
2023-02-25T09:47:53.067Z,8.55
2023-02-25T09:50:26.903Z,9.13
2023-02-25T09:53:35.601Z,7.38
2023-02-25T09:56:06.522Z,8.88
2023-02-25T09:58:48.436Z,12.38
2023-02-25T10:01:29.992Z,11.73
2023-02-25T10:04:05.553Z,10.48
2023-02-25T10:06:49.578Z,8.93
2023-02-25T10:09:37.508Z,10.13
2023-02-25T10:12:20.916Z,6.13
2023-02-25T10:18:14.160Z,6.03
2023-02-25T10:20:51.181Z,7.00
2023-02-25T10:23:39.727Z,8.50
2023-02-25T10:26:24.584Z,7.97
2023-02-25T10:29:20.217Z,7.75
2023-02-25T10:31:47.391Z,9.90
2023-02-25T10:34:27.184Z,7.25
2023-02-25T10:36:57.708Z,7.15
2023-02-25T10:39:27.239Z,6.47
2023-02-25T10:41:54.323Z,7.93
2023-02-25T10:44:21.493Z,7.13
2023-02-25T10:47:01.450Z,8.90
2023-02-25T10:49:30.646Z,6.60
2023-02-25T10:52:21.029Z,6.47
2023-02-25T10:54:53.448Z,9.05
2023-02-25T10:57:26.848Z,9.25
2023-02-25T11:14:37.956Z,9.52
2023-02-25T11:17:16.213Z,8.52
2023-02-25T11:19:47.845Z,9.40
2023-02-25T11:22:22.850Z,9.88
2023-02-25T11:24:59.697Z,9.25
2023-02-25T11:27:41.159Z,9.15
2023-02-25T11:30:14.173Z,9.45
2023-02-25T11:32:44.856Z,8.98
2023-02-25T11:35:21.482Z,9.05
2023-02-25T11:37:48.612Z,12.63
2023-02-25T11:40:35.099Z,11.23
2023-02-25T11:43:21.258Z,10.48
2023-02-25T11:46:02.494Z,9.68
2023-02-25T11:48:45.272Z,9.45
2023-02-25T11:51:35.865Z,9.68
2023-02-25T11:54:37.997Z,9.32
2023-02-25T11:57:12.555Z,7.55
2023-02-25T11:59:54.687Z,9.20
2023-02-25T12:03:03.516Z,9.07
2023-02-25T12:06:07.271Z,9.70
2023-02-25T12:08:47.885Z,9.60
2023-02-25T12:11:42.446Z,10.65
2023-02-25T12:14:51.285Z,10.38
2023-02-25T12:17:45.908Z,9.75
2023-02-25T12:20:53.291Z,9.65
2023-02-25T12:23:47.894Z,9.32
2023-02-25T12:26:55.272Z,10.18
2023-02-25T12:29:24.757Z,10.07
2023-02-25T12:32:48.722Z,9.82
2023-02-25T12:35:34.858Z,9.30
2023-02-25T12:38:49.607Z,8.65
2023-02-25T12:42:07.081Z,9.63
2023-02-25T12:44:56.149Z,9.93
2023-02-25T12:48:02.583Z,10.32
2023-02-25T12:51:21.432Z,8.75
2023-02-25T12:54:30.828Z,9.45
2023-02-25T12:57:23.835Z,8.75
2023-02-25T13:00:19.373Z,9.02
2023-02-25T13:03:27.001Z,8.95
2023-02-25T13:06:20.789Z,8.75
2023-02-25T13:09:44.403Z,10.32
2023-02-25T13:12:14.228Z,9.00
2023-02-25T13:14:55.904Z,9.20
2023-02-25T13:17:47.254Z,9.40
2023-02-25T13:20:41.425Z,9.50
2023-02-25T13:23:22.883Z,9.38
2023-02-25T13:26:27.672Z,9.70
2023-02-25T13:29:41.514Z,9.18
2023-02-25T13:32:41.346Z,9.38
2023-02-25T13:35:35.648Z,9.65
2023-02-25T13:38:27.673Z,11.07
2023-02-25T13:41:24.095Z,8.32
2023-02-25T13:44:09.511Z,10.77
2023-02-25T13:47:17.376Z,9.95
2023-02-25T13:50:17.762Z,8.95
2023-02-25T13:53:09.316Z,8.98
2023-02-25T13:56:23.489Z,9.93
2023-02-25T13:59:22.416Z,10.63
2023-02-25T14:02:33.382Z,10.05
2023-02-25T14:05:47.313Z,9.52
2023-02-25T14:09:14.093Z,9.95
2023-02-25T14:12:12.536Z,10.88
2023-02-25T14:15:31.361Z,10.27
2023-02-25T14:18:56.850Z,9.48
2023-02-25T14:22:00.674Z,9.93
2023-02-25T14:24:50.206Z,11.07
2023-02-25T14:27:46.273Z,9.38
2023-02-25T14:30:24.581Z,11.52
2023-02-25T14:33:25.879Z,10.90
2023-02-25T14:36:06.050Z,11.77
2023-02-25T14:39:24.018Z,11.73
2023-02-25T14:42:32.406Z,11.27
2023-02-25T14:45:14.020Z,8.88
2023-02-25T14:48:06.119Z,10.60
2023-02-25T14:50:49.053Z,11.18
2023-02-25T14:53:28.426Z,10.02
2023-02-25T14:56:26.477Z,11.13
2023-02-25T14:59:33.891Z,10.27
2023-02-25T15:02:28.295Z,10.73
2023-02-25T15:05:22.530Z,10.75
2023-02-25T15:08:33.215Z,10.93
2023-02-25T15:11:49.581Z,10.50
2023-02-25T15:14:35.147Z,9.35
2023-02-25T15:17:26.453Z,10.88
2023-02-25T15:19:57.108Z,10.80
2023-02-25T15:22:32.801Z,11.23
2023-02-25T15:25:22.029Z,11.07
2023-02-25T15:27:56.779Z,10.90
2023-02-25T15:30:27.248Z,11.18
2023-02-25T15:33:00.252Z,11.52
2023-02-25T15:35:50.127Z,11.68
2023-02-25T15:41:37.887Z,10.82
2023-02-25T15:44:13.628Z,12.07
2023-02-25T15:46:51.088Z,12.45
2023-02-25T15:49:31.570Z,11.55
2023-02-25T15:52:04.314Z,10.93
2023-02-25T15:54:31.449Z,10.55
2023-02-25T15:57:35.084Z,10.95
2023-02-25T16:00:02.183Z,11.07
2023-02-25T16:02:34.681Z,10.77
2023-02-25T16:05:11.837Z,11.07
2023-02-25T16:07:43.806Z,11.25
2023-02-25T16:10:22.073Z,11.15
2023-02-25T16:12:53.806Z,10.55
2023-02-25T16:15:32.415Z,10.57
2023-02-25T16:18:23.843Z,10.98
2023-02-25T16:20:55.351Z,11.07
2023-02-25T16:23:22.299Z,11.18
2023-02-25T16:26:29.069Z,11.45
2023-02-25T16:29:15.792Z,11.27
2023-02-25T16:32:09.261Z,11.45
2023-02-25T16:35:02.705Z,11.18
2023-02-25T16:38:22.306Z,11.02
2023-02-25T16:40:49.730Z,11.88
2023-02-25T16:43:32.378Z,11.38
2023-02-25T16:46:06.613Z,11.35
2023-02-25T16:48:56.550Z,11.75
2023-02-25T16:54:08.671Z,9.45
2023-02-25T16:56:36.281Z,26.27
2023-02-25T16:59:18.636Z,24.33
2023-02-25T17:02:02.501Z,13.27
2023-02-25T17:04:36.927Z,11.55
2023-02-25T17:07:23.047Z,10.90
2023-02-25T17:10:00.671Z,9.75
2023-02-25T17:12:40.824Z,10.63
2023-02-25T17:15:17.943Z,10.27
2023-02-25T17:17:45.707Z,9.98
2023-02-25T17:20:24.304Z,17.40
2023-02-25T17:22:52.134Z,12.27
2023-02-25T17:25:20.961Z,9.23
2023-02-25T17:27:50.260Z,8.20
2023-02-25T17:30:46.039Z,9.85
2023-02-25T17:33:29.159Z,10.20
2023-02-25T17:36:23.708Z,9.77
2023-02-25T17:39:00.058Z,9.27
2023-02-25T17:41:27.904Z,8.63
2023-02-25T17:43:54.840Z,8.48
2023-02-25T17:46:29.965Z,7.65
2023-02-25T17:49:01.155Z,8.60
2023-02-25T17:51:33.668Z,9.93
2023-02-25T17:54:12.802Z,8.48
2023-02-25T17:56:39.978Z,8.32
2023-02-25T17:59:31.091Z,6.90
2023-02-25T18:02:00.476Z,7.70
2023-02-25T18:04:40.840Z,6.85
2023-02-25T18:07:33.183Z,7.60
2023-02-25T18:10:00.956Z,7.47
2023-02-25T18:12:28.797Z,10.25
2023-02-25T18:14:59.162Z,8.18
2023-02-25T18:17:38.718Z,9.02
2023-02-25T18:20:27.796Z,9.20
2023-02-25T18:22:55.654Z,8.18
2023-02-25T18:25:44.881Z,8.18
2023-02-25T18:28:18.810Z,7.18
2023-02-25T18:30:46.006Z,7.68
2023-02-25T18:33:13.303Z,7.88
2023-02-25T18:35:43.785Z,7.97
2023-02-25T18:38:26.252Z,6.30
2023-02-25T18:40:54.274Z,6.70
2023-02-25T18:43:34.324Z,6.88
2023-02-25T18:46:02.243Z,7.03
2023-02-25T18:48:29.286Z,6.85
2023-02-25T18:50:58.465Z,6.50
2023-02-25T18:53:26.484Z,7.22
2023-02-25T18:55:56.187Z,7.00
2023-02-25T18:58:23.742Z,6.32
2023-02-25T19:00:55.820Z,4.82
2023-02-25T19:03:32.357Z,6.18
2023-02-25T19:06:00.133Z,5.78
2023-02-25T19:08:27.435Z,6.00
2023-02-25T19:10:54.699Z,6.35
2023-02-25T19:13:38.619Z,5.03
2023-02-25T19:16:06.162Z,6.32
2023-02-25T19:18:33.267Z,6.25
2023-02-25T19:21:00.292Z,5.65
2023-02-25T19:23:27.206Z,6.55
2023-02-25T19:25:58.426Z,5.97
2023-02-25T19:28:26.523Z,5.82
2023-02-25T19:30:53.470Z,7.10
2023-02-25T19:33:20.352Z,7.40
2023-02-25T19:35:47.254Z,7.18
2023-02-25T19:38:18.406Z,7.03
2023-02-25T19:40:47.565Z,6.68
2023-02-25T19:43:15.515Z,7.10
2023-02-25T19:45:43.503Z,7.57
2023-02-25T19:48:10.879Z,7.40
2023-02-25T19:50:41.236Z,6.28
2023-02-25T19:53:08.490Z,6.22
2023-02-25T19:55:35.500Z,7.22
2023-02-25T19:58:02.924Z,6.47
2023-02-25T20:00:30.023Z,6.18
2023-02-25T20:02:57.065Z,6.93
2023-02-25T20:05:24.734Z,6.90
2023-02-25T20:07:51.760Z,7.30
2023-02-25T20:10:19.239Z,7.45
2023-02-25T20:12:47.766Z,6.85
2023-02-25T20:15:16.528Z,6.28
2023-02-25T20:17:45.009Z,6.80
2023-02-25T20:20:14.591Z,6.30
2023-02-25T20:22:42.279Z,5.85
2023-02-25T20:25:10.641Z,6.13
2023-02-25T20:27:39.686Z,6.15
2023-02-25T20:30:08.164Z,5.85
2023-02-25T20:32:35.305Z,6.63
2023-02-25T20:35:02.851Z,8.27
2023-02-25T20:37:34.751Z,5.88
2023-02-25T20:40:01.749Z,5.72
2023-02-25T20:42:31.292Z,5.85
2023-02-25T20:44:59.463Z,6.57
2023-02-25T20:47:36.452Z,5.93
2023-02-25T20:52:32.944Z,5.97
2023-02-25T20:55:00.654Z,4.25
2023-02-25T20:57:27.604Z,5.78
2023-02-25T20:59:54.796Z,6.75
2023-02-25T21:02:22.507Z,5.57
2023-02-25T21:04:50.338Z,6.13
2023-02-25T21:07:17.465Z,6.60
2023-02-25T21:09:44.565Z,6.78
2023-02-25T21:12:11.771Z,6.35
2023-02-25T21:14:38.672Z,6.63
2023-02-25T21:17:09.393Z,7.25
2023-02-25T21:19:38.579Z,7.18
2023-02-25T21:22:07.284Z,5.97
2023-02-25T21:24:34.841Z,7.00
2023-02-25T21:27:02.725Z,7.82
2023-02-25T21:29:29.836Z,6.90
2023-02-25T21:31:56.887Z,7.18
2023-02-25T21:34:23.820Z,7.25
2023-02-25T21:36:51.105Z,8.05
2023-02-25T21:39:18.209Z,7.68
2023-02-25T21:41:45.349Z,7.57
2023-02-25T21:44:13.332Z,8.15
2023-02-25T21:46:41.048Z,7.75
2023-02-25T21:49:10.398Z,7.22
2023-02-25T21:51:37.556Z,7.50
2023-02-25T21:54:04.561Z,6.47
2023-02-25T21:56:31.956Z,6.85
2023-02-25T21:59:03.318Z,7.00
2023-02-25T22:01:35.204Z,6.53
2023-02-25T22:04:03.223Z,4.90
2023-02-25T22:06:30.816Z,7.60
2023-02-25T22:08:58.079Z,7.10
2023-02-25T22:11:36.849Z,6.80
2023-02-25T22:14:06.769Z,7.55
2023-02-25T22:16:35.523Z,7.32
2023-02-25T22:19:02.494Z,5.60
2023-02-25T22:21:34.390Z,7.03
2023-02-25T22:24:03.880Z,7.22
2023-02-25T22:26:34.289Z,7.00
2023-02-25T22:29:06.208Z,7.45
2023-02-25T22:31:35.107Z,6.95
2023-02-25T22:34:02.835Z,8.20
2023-02-25T22:36:30.091Z,6.82
2023-02-25T22:38:57.006Z,7.00
2023-02-25T22:41:29.276Z,8.52
2023-02-25T22:43:57.863Z,6.75
2023-02-25T22:46:28.440Z,8.38
2023-02-25T22:48:56.210Z,7.57
2023-02-25T22:51:44.668Z,7.22
2023-02-25T22:54:14.833Z,7.13
2023-02-25T22:56:42.863Z,7.07
2023-02-25T22:59:10.096Z,7.57
2023-02-25T23:01:37.079Z,7.55
2023-02-25T23:04:04.426Z,6.68
2023-02-25T23:06:43.363Z,6.93
2023-02-25T23:09:12.664Z,7.68
2023-02-25T23:11:42.347Z,7.93
2023-02-25T23:14:09.938Z,5.63
2023-02-25T23:16:41.618Z,8.00
2023-02-25T23:19:16.065Z,8.60
2023-02-25T23:21:43.548Z,7.53
2023-02-25T23:24:18.363Z,7.32
2023-02-25T23:26:47.460Z,7.50
2023-02-25T23:29:14.390Z,6.63
2023-02-25T23:31:47.473Z,6.20
2023-02-25T23:34:25.900Z,7.53
2023-02-25T23:36:56.476Z,6.50
2023-02-25T23:41:50.516Z,6.85
2023-02-25T23:44:17.476Z,6.65
2023-02-25T23:46:45.320Z,6.35
2023-02-25T23:49:15.469Z,7.88
2023-02-25T23:51:47.197Z,7.40
2023-02-25T23:54:21.249Z,8.25
2023-02-25T23:56:50.080Z,6.85
2023-02-25T23:59:17.442Z,7.13
